Time;durP1;ratioP1;P1;durP2;ratioP2;P2;SDS_P1;SDS_P2;PMS_P1;PMS_P2;Temp;Humidity;BMP_temperature;BMP_pressure;BME280_temperature;BME280_humidity;BME280_pressure;Samples;Min_cycle;Max_cycle;Signal;HPM_P1;HPM_P2
2023/09/09 00:00:09;;;;;;;12.57;11.10;;;21.10;99.90;;;;;;5060812;28;20467;-62
2023/09/09 00:02:36;;;;;;;11.40;10.20;;;21.00;99.90;;;;;;5060848;28;20442;-65
2023/09/09 00:05:03;;;;;;;10.63;9.27;;;21.00;99.90;;;;;;5052209;28;20519;-63
2023/09/09 00:07:32;;;;;;;11.40;10.20;;;21.00;99.90;;;;;;5040863;28;20535;-62
2023/09/09 00:09:59;;;;;;;11.77;10.57;;;20.90;99.90;;;;;;5041137;28;20824;-63
2023/09/09 00:12:26;;;;;;;11.87;10.03;;;20.90;99.90;;;;;;5040771;28;20912;-61
2023/09/09 00:14:53;;;;;;;13.20;9.40;;;20.90;99.90;;;;;;5040444;28;20523;-63
2023/09/09 00:17:20;;;;;;;10.70;9.60;;;20.80;99.90;;;;;;5040126;28;20909;-63
2023/09/09 00:19:49;;;;;;;16.73;11.00;;;20.80;99.90;;;;;;5040789;28;20472;-62
2023/09/09 00:22:17;;;;;;;11.03;9.90;;;20.80;99.90;;;;;;5040850;28;20484;-62
2023/09/09 00:24:45;;;;;;;15.33;11.27;;;20.80;99.90;;;;;;5047363;28;20503;-63
2023/09/09 00:27:12;;;;;;;15.20;10.63;;;20.80;99.90;;;;;;5059506;28;20474;-61
2023/09/09 00:29:39;;;;;;;13.00;10.20;;;20.70;99.90;;;;;;5059231;28;20563;-62
2023/09/09 00:32:06;;;;;;;12.10;9.97;;;20.70;99.90;;;;;;5059470;28;20443;-62
2023/09/09 00:34:35;;;;;;;10.87;9.37;;;20.70;99.90;;;;;;5058933;28;20582;-61
2023/09/09 00:37:03;;;;;;;12.20;10.43;;;20.70;99.90;;;;;;5059368;28;20528;-64
2023/09/09 00:39:30;;;;;;;14.70;11.27;;;20.60;99.90;;;;;;5061226;28;20455;-63
2023/09/09 00:41:59;;;;;;;14.47;10.10;;;20.60;99.90;;;;;;5059952;28;20451;-62
2023/09/09 00:44:26;;;;;;;13.83;10.80;;;20.60;99.90;;;;;;5063144;28;20534;-61
2023/09/09 00:46:52;;;;;;;11.10;9.60;;;20.50;99.90;;;;;;5060431;28;20934;-63
2023/09/09 00:49:20;;;;;;;15.33;11.17;;;20.50;99.90;;;;;;5062929;28;20529;-64
2023/09/09 00:51:47;;;;;;;15.27;11.57;;;20.50;99.90;;;;;;5057041;28;20527;-62
2023/09/09 00:54:15;;;;;;;12.53;10.23;;;20.50;99.90;;;;;;5043047;28;20550;-61
2023/09/09 00:56:42;;;;;;;13.20;11.37;;;20.50;99.90;;;;;;5044202;28;20536;-61
2023/09/09 00:59:12;;;;;;;13.17;11.07;;;20.50;99.90;;;;;;5060223;28;20439;-59
2023/09/09 01:01:39;;;;;;;11.53;10.30;;;20.40;99.90;;;;;;5061525;28;20509;-61
2023/09/09 01:04:06;;;;;;;12.33;10.27;;;20.40;99.90;;;;;;5059876;28;20796;-61
2023/09/09 01:06:34;;;;;;;13.57;10.87;;;20.40;99.90;;;;;;5044372;28;20504;-63
2023/09/09 01:09:06;;;;;;;10.87;9.67;;;20.40;99.90;;;;;;5038360;28;20494;-62
2023/09/09 01:11:33;;;;;;;11.10;9.90;;;20.40;99.90;;;;;;5038372;28;20487;-63
2023/09/09 01:14:01;;;;;;;14.63;10.20;;;20.40;99.90;;;;;;5038050;28;20479;-62
2023/09/09 01:16:31;;;;;;;13.83;11.20;;;20.30;99.90;;;;;;5038328;28;20467;-62
2023/09/09 01:18:58;;;;;;;12.97;11.47;;;20.30;99.90;;;;;;5038212;28;20479;-62
2023/09/09 01:21:28;;;;;;;13.20;11.90;;;20.20;99.90;;;;;;5037579;28;20500;-61
2023/09/09 01:23:57;;;;;;;12.20;10.23;;;20.20;99.90;;;;;;5043350;28;20893;-63
2023/09/09 01:26:24;;;;;;;15.10;11.37;;;20.20;99.90;;;;;;5057774;28;20482;-62
2023/09/09 01:28:51;;;;;;;13.90;10.13;;;20.20;99.90;;;;;;5057500;28;20512;-62
2023/09/09 01:31:18;;;;;;;13.53;10.50;;;20.20;99.90;;;;;;5057559;28;20470;-61
2023/09/09 01:33:45;;;;;;;12.63;10.43;;;20.10;99.90;;;;;;5057672;28;20524;-61
2023/09/09 01:36:11;;;;;;;11.93;10.63;;;20.10;99.90;;;;;;5057031;28;20502;-61
2023/09/09 01:38:38;;;;;;;11.90;9.80;;;20.10;99.90;;;;;;5057930;28;20916;-61
2023/09/09 01:41:06;;;;;;;11.10;10.00;;;20.10;99.90;;;;;;5057063;28;20924;-61
2023/09/09 01:43:33;;;;;;;13.30;10.30;;;20.00;99.90;;;;;;5037913;28;20490;-62
2023/09/09 01:46:00;;;;;;;11.03;9.83;;;20.00;99.90;;;;;;5037553;28;20463;-61
2023/09/09 01:48:27;;;;;;;13.83;11.63;;;20.00;99.90;;;;;;5038001;28;20543;-62
2023/09/09 01:50:54;;;;;;;13.40;11.20;;;20.00;99.90;;;;;;5037713;28;20503;-62
2023/09/09 01:53:21;;;;;;;13.73;10.40;;;20.00;99.90;;;;;;5037972;28;20452;-62
2023/09/09 01:55:47;;;;;;;11.53;10.10;;;19.90;99.90;;;;;;5037948;28;20555;-62
2023/09/09 01:58:16;;;;;;;15.13;11.63;;;19.90;99.90;;;;;;5037451;28;20435;-62
2023/09/09 02:00:43;;;;;;;12.57;10.73;;;19.70;99.90;;;;;;5037709;28;20563;-62
2023/09/09 02:03:10;;;;;;;13.27;11.17;;;19.80;99.90;;;;;;5037651;28;20448;-61
2023/09/09 02:05:38;;;;;;;14.63;11.93;;;19.80;99.90;;;;;;5037141;28;20519;-62
2023/09/09 02:08:05;;;;;;;14.57;12.33;;;19.80;99.90;;;;;;5047115;28;20475;-62
2023/09/09 02:10:32;;;;;;;16.13;12.13;;;19.70;99.90;;;;;;5057765;28;20503;-61
2023/09/09 02:12:59;;;;;;;14.10;11.67;;;19.70;99.90;;;;;;5059194;28;20486;-61
2023/09/09 02:15:27;;;;;;;13.30;10.77;;;19.70;99.90;;;;;;5061517;28;20532;-59
2023/09/09 02:17:54;;;;;;;12.83;11.10;;;19.70;99.90;;;;;;5060343;28;20506;-61
2023/09/09 02:20:21;;;;;;;12.90;11.07;;;19.70;99.90;;;;;;5041283;28;20459;-63
2023/09/09 02:22:47;;;;;;;15.37;11.20;;;19.60;99.90;;;;;;5041489;28;20471;-60
2023/09/09 02:25:14;;;;;;;15.60;11.47;;;19.60;99.90;;;;;;5041974;28;20444;-61
2023/09/09 02:27:43;;;;;;;15.87;11.30;;;19.50;99.90;;;;;;5046753;28;20467;-61
2023/09/09 02:30:13;;;;;;;12.93;11.20;;;19.50;99.90;;;;;;5063204;28;20439;-63
2023/09/09 02:32:43;;;;;;;15.23;11.97;;;19.40;99.90;;;;;;5078819;28;20486;-63
2023/09/09 02:35:11;;;;;;;13.23;10.87;;;19.40;99.90;;;;;;5070492;28;20514;-60
2023/09/09 02:37:38;;;;;;;15.47;11.30;;;19.40;99.90;;;;;;5061645;28;20473;-63
2023/09/09 02:40:06;;;;;;;19.60;11.30;;;19.40;99.90;;;;;;5061453;28;20542;-61
2023/09/09 02:42:33;;;;;;;12.30;10.20;;;19.30;99.90;;;;;;5061040;28;20474;-63
2023/09/09 02:45:00;;;;;;;14.10;10.60;;;19.30;99.90;;;;;;5060786;28;20491;-63
2023/09/09 02:47:27;;;;;;;20.10;12.50;;;19.30;99.90;;;;;;5060919;28;20521;-60
2023/09/09 02:49:55;;;;;;;12.70;10.63;;;19.30;99.90;;;;;;5060185;28;20518;-61
2023/09/09 02:52:22;;;;;;;10.70;9.60;;;19.20;99.90;;;;;;5060995;28;20567;-61
2023/09/09 02:54:49;;;;;;;13.87;11.13;;;19.20;99.90;;;;;;5060874;28;20572;-60
2023/09/09 02:57:15;;;;;;;15.03;12.90;;;19.20;99.90;;;;;;5060576;28;20497;-62
2023/09/09 02:59:42;;;;;;;12.30;10.70;;;19.20;99.90;;;;;;5061449;28;20479;-61
2023/09/09 03:02:09;;;;;;;13.80;10.80;;;19.20;99.90;;;;;;5061192;28;21006;-62
2023/09/09 03:04:36;;;;;;;14.50;12.37;;;19.20;99.90;;;;;;5061147;28;20928;-61
2023/09/09 03:07:04;;;;;;;12.30;10.90;;;19.20;99.90;;;;;;5061135;28;20494;-63
2023/09/09 03:09:33;;;;;;;18.83;11.47;;;19.20;99.90;;;;;;5059438;28;20452;-62
2023/09/09 03:12:01;;;;;;;12.37;11.17;;;19.10;99.90;;;;;;5041417;28;20564;-61
2023/09/09 03:14:28;;;;;;;18.07;11.53;;;19.20;99.90;;;;;;5041082;28;20785;-63
2023/09/09 03:16:56;;;;;;;15.77;11.27;;;19.20;99.90;;;;;;5040770;28;20555;-63
2023/09/09 03:19:23;;;;;;;15.93;12.30;;;19.10;99.90;;;;;;5041025;28;20441;-62
2023/09/09 03:21:50;;;;;;;13.10;10.60;;;19.20;99.90;;;;;;5040913;28;20472;-62
2023/09/09 03:24:18;;;;;;;14.20;12.27;;;19.10;99.90;;;;;;5040328;28;20459;-61
2023/09/09 03:26:45;;;;;;;13.90;10.10;;;19.20;99.90;;;;;;5040827;28;20455;-61
2023/09/09 03:29:14;;;;;;;13.07;11.57;;;19.10;99.90;;;;;;5040961;28;20519;-61
2023/09/09 03:31:41;;;;;;;13.90;11.07;;;19.10;99.90;;;;;;5040778;28;20487;-63
2023/09/09 03:34:08;;;;;;;15.30;11.90;;;19.00;99.90;;;;;;5048099;28;20530;-62
2023/09/09 03:36:35;;;;;;;12.40;11.10;;;18.90;99.90;;;;;;5060172;28;20486;-62
2023/09/09 03:39:03;;;;;;;14.50;11.50;;;18.90;99.90;;;;;;5059892;28;20451;-62
2023/09/09 03:41:31;;;;;;;14.70;11.73;;;18.90;99.90;;;;;;5059664;28;20467;-60
2023/09/09 03:43:58;;;;;;;12.80;11.47;;;18.90;99.90;;;;;;5042200;28;20965;-61
2023/09/09 03:46:27;;;;;;;13.37;11.47;;;18.90;99.90;;;;;;5040761;28;20467;-61
2023/09/09 03:48:54;;;;;;;13.20;11.00;;;18.80;99.90;;;;;;5039787;28;20893;-61
2023/09/09 03:51:21;;;;;;;13.53;11.10;;;18.80;99.90;;;;;;5040605;28;20446;-61
2023/09/09 03:53:48;;;;;;;14.40;11.13;;;18.80;99.90;;;;;;5040508;28;20448;-61
2023/09/09 03:56:15;;;;;;;15.67;11.33;;;18.70;99.90;;;;;;5060673;28;20893;-63
2023/09/09 03:58:44;;;;;;;15.57;10.87;;;18.70;99.90;;;;;;5059865;28;20502;-64
2023/09/09 04:01:12;;;;;;;13.33;10.27;;;18.70;99.90;;;;;;5059763;28;20444;-60
2023/09/09 04:03:39;;;;;;;14.87;11.47;;;18.70;99.90;;;;;;5060254;28;20467;-62
2023/09/09 04:06:08;;;;;;;14.03;11.30;;;18.60;99.90;;;;;;5054814;28;20475;-62
2023/09/09 04:08:36;;;;;;;15.50;13.67;;;18.60;99.90;;;;;;5040038;28;20510;-62
2023/09/09 04:11:03;;;;;;;14.17;10.43;;;18.50;99.90;;;;;;5039848;28;20444;-62
2023/09/09 04:13:31;;;;;;;18.50;13.70;;;18.60;99.90;;;;;;5040212;28;20468;-62
2023/09/09 04:16:00;;;;;;;13.63;11.67;;;18.50;99.90;;;;;;5040154;28;20483;-62
2023/09/09 04:18:29;;;;;;;14.47;11.70;;;18.50;99.90;;;;;;5039492;28;20476;-62
2023/09/09 04:20:56;;;;;;;13.03;11.10;;;18.50;99.90;;;;;;5040406;28;20809;-62
2023/09/09 04:23:23;;;;;;;12.97;11.17;;;18.50;99.90;;;;;;5039826;28;20512;-62
2023/09/09 04:25:50;;;;;;;14.03;11.40;;;18.50;99.90;;;;;;5039836;28;20456;-62
2023/09/09 04:28:17;;;;;;;15.37;11.50;;;18.50;99.90;;;;;;5039559;28;20533;-61
2023/09/09 04:30:45;;;;;;;22.10;12.93;;;18.50;99.90;;;;;;5048923;28;20455;-62
2023/09/09 04:33:14;;;;;;;13.23;11.80;;;18.50;99.90;;;;;;5059105;28;20485;-61
2023/09/09 04:35:44;;;;;;;13.70;11.97;;;18.50;99.90;;;;;;5058494;28;20490;-61
2023/09/09 04:38:11;;;;;;;14.80;11.33;;;18.50;99.90;;;;;;5058151;28;20498;-62
2023/09/09 04:40:40;;;;;;;20.10;11.50;;;18.50;99.90;;;;;;5059100;28;20490;-62
2023/09/09 04:43:07;;;;;;;19.20;13.23;;;18.50;99.90;;;;;;5058856;28;20499;-62
2023/09/09 04:45:34;;;;;;;15.70;12.60;;;18.50;99.90;;;;;;5059529;28;20836;-61
2023/09/09 04:48:01;;;;;;;15.57;12.00;;;18.50;99.90;;;;;;5058790;28;20490;-61
2023/09/09 04:50:29;;;;;;;18.73;11.97;;;18.50;99.90;;;;;;5058413;28;20514;-62
2023/09/09 04:52:56;;;;;;;12.57;11.30;;;18.50;99.90;;;;;;5056735;28;20450;-62
2023/09/09 04:55:23;;;;;;;15.13;12.10;;;18.50;99.90;;;;;;5057016;28;20517;-61
2023/09/09 04:57:49;;;;;;;15.97;11.17;;;18.50;99.90;;;;;;5056376;28;20455;-60
2023/09/09 05:00:17;;;;;;;15.17;11.53;;;18.50;99.90;;;;;;5056558;28;20531;-60
2023/09/09 05:02:43;;;;;;;12.60;10.83;;;18.50;99.90;;;;;;5056555;28;20466;-62
2023/09/09 05:05:10;;;;;;;16.80;12.37;;;18.50;99.90;;;;;;5056916;28;20530;-61
2023/09/09 05:07:39;;;;;;;15.10;11.30;;;18.50;99.90;;;;;;5041825;28;20558;-62
2023/09/09 05:10:06;;;;;;;14.93;13.23;;;18.50;99.90;;;;;;5036456;28;20521;-61
2023/09/09 05:12:34;;;;;;;13.93;11.30;;;18.40;99.90;;;;;;5036873;28;20491;-62
2023/09/09 05:15:01;;;;;;;16.80;13.17;;;18.40;99.90;;;;;;5036673;28;20538;-62
2023/09/09 05:17:28;;;;;;;16.57;13.10;;;18.50;99.90;;;;;;5036549;28;20476;-63
2023/09/09 05:19:54;;;;;;;18.30;12.90;;;18.50;99.90;;;;;;5036504;28;20960;-61
2023/09/09 05:22:21;;;;;;;26.63;13.40;;;18.50;99.90;;;;;;5036597;28;20551;-60
2023/09/09 05:24:50;;;;;;;15.33;12.80;;;18.50;99.90;;;;;;5036343;28;20492;-60
2023/09/09 05:27:17;;;;;;;12.90;11.47;;;18.50;99.90;;;;;;5037402;28;20826;-61
2023/09/09 05:29:44;;;;;;;14.00;11.70;;;18.50;99.90;;;;;;5036544;28;20472;-62
2023/09/09 05:32:10;;;;;;;17.37;13.27;;;18.50;99.90;;;;;;5051729;28;20479;-64
2023/09/09 05:34:37;;;;;;;17.50;13.03;;;18.50;99.90;;;;;;5056077;28;20550;-62
2023/09/09 05:37:04;;;;;;;13.27;11.30;;;18.50;99.90;;;;;;5056012;28;20546;-60
2023/09/09 05:39:31;;;;;;;13.33;11.93;;;18.50;99.90;;;;;;5056209;28;20471;-60
2023/09/09 05:42:00;;;;;;;13.23;10.90;;;18.60;99.90;;;;;;5056061;28;20489;-63
2023/09/09 05:44:26;;;;;;;14.97;11.63;;;18.60;99.90;;;;;;5056502;28;20507;-62
2023/09/09 05:46:54;;;;;;;16.23;13.27;;;18.60;99.90;;;;;;5056094;28;20841;-60
2023/09/09 05:49:21;;;;;;;14.43;12.17;;;18.60;99.90;;;;;;5055902;28;20499;-61
2023/09/09 05:51:48;;;;;;;14.17;11.83;;;18.60;99.90;;;;;;5056152;28;20907;-61
2023/09/09 05:54:15;;;;;;;16.03;12.43;;;18.70;99.90;;;;;;5056078;28;20558;-63
2023/09/09 05:56:42;;;;;;;15.40;12.87;;;18.70;99.90;;;;;;5056205;28;20509;-61
2023/09/09 05:59:10;;;;;;;17.13;12.83;;;18.70;99.90;;;;;;5055717;28;20569;-61
2023/09/09 06:01:37;;;;;;;13.67;12.00;;;18.80;99.90;;;;;;5056011;28;20441;-61
2023/09/09 06:04:04;;;;;;;14.03;12.10;;;18.80;99.90;;;;;;5055230;28;20459;-61
2023/09/09 06:06:31;;;;;;;15.13;11.07;;;18.80;99.90;;;;;;5055686;28;20468;-61
2023/09/09 06:08:58;;;;;;;13.93;12.27;;;18.90;99.90;;;;;;5055570;28;20481;-61
2023/09/09 06:11:25;;;;;;;18.47;13.20;;;19.00;99.90;;;;;;5042029;28;20467;-61
2023/09/09 06:13:52;;;;;;;16.13;14.00;;;19.00;99.90;;;;;;5035736;28;20464;-62
2023/09/09 06:16:20;;;;;;;14.80;11.93;;;19.10;99.90;;;;;;5036160;28;20546;-62
2023/09/09 06:18:47;;;;;;;14.30;11.30;;;19.10;99.90;;;;;;5036032;28;20463;-61
2023/09/09 06:21:14;;;;;;;14.60;11.00;;;19.20;99.90;;;;;;5035911;28;21047;-61
2023/09/09 06:23:41;;;;;;;19.40;11.57;;;19.20;99.90;;;;;;5035960;28;20490;-62
2023/09/09 06:26:08;;;;;;;13.93;11.73;;;19.30;99.90;;;;;;5035662;28;20468;-62
2023/09/09 06:28:35;;;;;;;13.70;10.77;;;19.40;99.90;;;;;;5055237;28;20475;-61
2023/09/09 06:31:02;;;;;;;14.20;10.93;;;19.40;99.90;;;;;;5055685;28;20471;-61
2023/09/09 06:33:30;;;;;;;16.27;11.20;;;19.50;99.90;;;;;;5055376;28;20920;-61
2023/09/09 06:35:57;;;;;;;13.10;11.00;;;19.60;99.90;;;;;;5055148;28;20495;-61
2023/09/09 06:38:24;;;;;;;14.67;11.03;;;19.70;99.90;;;;;;5054939;28;20538;-60
2023/09/09 06:40:51;;;;;;;13.43;11.97;;;19.70;99.90;;;;;;5055198;28;20477;-62
2023/09/09 06:43:19;;;;;;;12.57;11.20;;;19.80;99.90;;;;;;5054791;28;20530;-60
2023/09/09 06:45:46;;;;;;;14.20;10.93;;;19.80;99.90;;;;;;5055276;28;20771;-62
2023/09/09 06:48:16;;;;;;;13.90;11.23;;;19.90;99.90;;;;;;5054736;28;20459;-61
2023/09/09 06:50:45;;;;;;;14.20;11.87;;;19.90;99.90;;;;;;5054772;28;20669;-63
2023/09/09 06:53:12;;;;;;;16.73;10.87;;;19.90;99.90;;;;;;5054331;28;20553;-62
2023/09/09 06:55:39;;;;;;;13.63;10.50;;;20.00;99.90;;;;;;5055404;28;20586;-61
2023/09/09 06:58:06;;;;;;;17.30;10.87;;;20.10;99.90;;;;;;5055193;28;20485;-62
2023/09/09 07:00:33;;;;;;;12.17;10.97;;;20.10;99.90;;;;;;5057195;28;20467;-61
2023/09/09 07:03:00;;;;;;;11.93;10.30;;;20.10;99.90;;;;;;5059005;28;20447;-61
2023/09/09 07:05:27;;;;;;;14.40;11.10;;;20.20;99.90;;;;;;5058487;28;20545;-63
2023/09/09 07:07:56;;;;;;;12.17;10.60;;;20.20;99.90;;;;;;5061384;28;20451;-58
2023/09/09 07:10:22;;;;;;;11.47;10.43;;;20.30;99.90;;;;;;5060699;28;20955;-62
2023/09/09 07:12:50;;;;;;;11.40;9.83;;;20.40;99.90;;;;;;5044590;28;20456;-61
2023/09/09 07:15:17;;;;;;;13.23;9.53;;;20.50;99.90;;;;;;5038744;28;20478;-64
2023/09/09 07:17:46;;;;;;;11.63;10.43;;;20.60;99.90;;;;;;5039122;28;20523;-61
2023/09/09 07:20:13;;;;;;;12.33;9.63;;;20.70;99.90;;;;;;5058208;28;20479;-62
2023/09/09 07:22:39;;;;;;;11.30;9.60;;;20.80;99.90;;;;;;5058429;28;20470;-62
2023/09/09 07:25:08;;;;;;;10.43;9.40;;;20.80;99.90;;;;;;5057883;28;20542;-62
2023/09/09 07:27:35;;;;;;;11.13;9.60;;;20.90;99.90;;;;;;5057978;28;20423;-61
2023/09/09 07:30:04;;;;;;;11.63;9.10;;;21.00;99.90;;;;;;5040068;28;20472;-62
2023/09/09 07:32:31;;;;;;;10.57;9.57;;;21.10;99.90;;;;;;5038012;28;20432;-62
2023/09/09 07:34:58;;;;;;;12.27;9.20;;;21.30;99.90;;;;;;5037724;28;20488;-63
2023/09/09 07:37:25;;;;;;;10.07;8.83;;;21.40;99.90;;;;;;5037738;28;20880;-61
2023/09/09 07:39:52;;;;;;;11.80;9.00;;;21.50;99.90;;;;;;5037849;28;20448;-63
2023/09/09 07:42:20;;;;;;;12.33;8.67;;;21.70;99.90;;;;;;5040133;28;20452;-61
2023/09/09 07:44:47;;;;;;;8.60;7.83;;;21.70;99.90;;;;;;5040489;28;20764;-60
2023/09/09 07:47:14;;;;;;;9.80;8.70;;;21.80;99.90;;;;;;5040679;28;20540;-62
2023/09/09 07:49:41;;;;;;;8.70;7.80;;;22.00;99.90;;;;;;5038227;28;20460;-62
2023/09/09 07:52:08;;;;;;;10.30;8.60;;;22.00;99.90;;;;;;5037450;28;20543;-64
2023/09/09 07:54:35;;;;;;;10.50;8.90;;;22.20;99.90;;;;;;5045786;28;20490;-61
2023/09/09 07:57:02;;;;;;;26.63;9.20;;;22.30;99.90;;;;;;5056998;28;21205;-61
2023/09/09 07:59:31;;;;;;;9.33;8.33;;;22.40;99.90;;;;;;5056614;28;20477;-62
2023/09/09 08:01:57;;;;;;;8.37;7.40;;;22.60;99.90;;;;;;5056768;28;20609;-60
2023/09/09 08:04:24;;;;;;;8.30;7.40;;;22.80;99.90;;;;;;5056830;28;20534;-64
2023/09/09 08:06:53;;;;;;;8.73;7.57;;;23.10;99.90;;;;;;5057213;28;20556;-61
2023/09/09 08:09:20;;;;;;;10.13;8.47;;;23.40;99.90;;;;;;5056611;28;20443;-62
2023/09/09 08:11:47;;;;;;;12.67;8.13;;;24.10;99.90;;;;;;5037262;28;20471;-62
2023/09/09 08:14:14;;;;;;;8.10;7.30;;;25.50;99.90;;;;;;5038117;28;20452;-62
2023/09/09 08:16:42;;;;;;;8.03;7.20;;;27.00;99.90;;;;;;5037554;28;20575;-63
2023/09/09 08:19:09;;;;;;;8.17;7.33;;;28.40;99.90;;;;;;5047835;28;20506;-62
2023/09/09 08:21:36;;;;;;;17.53;7.43;;;29.50;99.90;;;;;;5059184;28;20478;-63
2023/09/09 08:24:03;;;;;;;7.90;7.10;;;30.90;95.70;;;;;;5052299;28;20787;-61
2023/09/09 08:26:30;;;;;;;6.93;6.33;;;32.00;90.50;;;;;;5038374;28;20527;-63
2023/09/09 08:28:57;;;;;;;7.93;7.23;;;33.30;83.20;;;;;;5040056;28;20519;-62
2023/09/09 08:31:24;;;;;;;7.33;6.67;;;34.60;73.30;;;;;;5040025;28;20464;-62
2023/09/09 08:33:52;;;;;;;7.93;7.13;;;35.50;66.20;;;;;;5039609;28;20540;-61
2023/09/09 08:36:19;;;;;;;9.20;6.73;;;36.10;61.30;;;;;;5039831;28;20483;-63
2023/09/09 08:38:46;;;;;;;8.03;7.37;;;36.30;58.70;;;;;;5040636;28;20532;-63
2023/09/09 08:41:21;;;;;;;6.87;6.30;;;36.70;57.20;;;;;;5040659;28;20528;-62
2023/09/09 08:43:55;;;;;;;8.33;7.60;;;37.20;55.10;;;;;;5039803;28;20432;-59
2023/09/09 08:46:22;;;;;;;7.20;6.43;;;37.60;53.50;;;;;;5039490;28;20499;-62
2023/09/09 08:48:52;;;;;;;7.60;6.93;;;37.70;52.80;;;;;;5038939;28;20444;-62
2023/09/09 08:51:25;;;;;;;7.90;7.10;;;37.40;52.70;;;;;;5038635;28;20969;-62
2023/09/09 08:53:54;;;;;;;7.60;6.90;;;37.50;52.70;;;;;;5038906;28;20440;-62
2023/09/09 08:56:21;;;;;;;7.27;6.57;;;37.70;51.40;;;;;;5038011;28;20976;-62
2023/09/09 08:58:49;;;;;;;9.93;6.40;;;37.70;51.10;;;;;;5039147;28;20792;-61
2023/09/09 09:01:16;;;;;;;9.37;8.47;;;37.90;50.70;;;;;;5039392;28;20547;-62
2023/09/09 09:03:44;;;;;;;7.80;7.00;;;38.20;50.60;;;;;;5050585;28;20465;-63
2023/09/09 09:06:12;;;;;;;7.80;7.03;;;38.00;49.80;;;;;;5058802;28;20443;-64
2023/09/09 09:08:39;;;;;;;9.63;6.90;;;38.10;49.70;;;;;;5058360;28;20507;-64
2023/09/09 09:11:08;;;;;;;9.10;7.13;;;38.10;48.80;;;;;;5059024;28;20896;-63
2023/09/09 09:13:35;;;;;;;7.73;7.00;;;38.20;48.40;;;;;;5058368;28;20558;-63
2023/09/09 09:16:01;;;;;;;7.30;6.60;;;38.00;48.40;;;;;;5058608;28;20542;-64
2023/09/09 09:18:30;;;;;;;7.00;6.30;;;37.90;48.50;;;;;;5058334;28;20498;-64
2023/09/09 09:21:06;;;;;;;9.50;6.00;;;37.70;48.60;;;;;;5057108;28;20954;-64
2023/09/09 09:23:41;;;;;;;7.07;6.20;;;37.50;50.00;;;;;;5056989;28;21008;-62
2023/09/09 09:26:23;;;;;;;7.60;6.77;;;37.50;50.20;;;;;;5053015;28;20492;-62
2023/09/09 09:28:51;;;;;;;9.53;7.50;;;37.50;48.70;;;;;;5037833;28;20479;-63
2023/09/09 09:31:21;;;;;;;7.03;6.40;;;37.70;48.70;;;;;;5037734;28;20517;-64
2023/09/09 09:33:48;;;;;;;8.03;7.23;;;37.60;48.50;;;;;;5038004;28;20476;-62
2023/09/09 09:36:18;;;;;;;14.37;7.33;;;37.90;48.60;;;;;;5037923;28;20484;-63
2023/09/09 09:38:46;;;;;;;9.30;6.17;;;37.70;48.50;;;;;;5038022;28;20452;-62
2023/09/09 09:41:13;;;;;;;7.50;6.27;;;37.90;48.20;;;;;;5057599;28;20463;-62
2023/09/09 09:43:40;;;;;;;7.83;7.13;;;38.40;47.20;;;;;;5058900;28;20959;-63
2023/09/09 09:46:17;;;;;;;7.50;6.80;;;38.50;46.60;;;;;;5058634;28;20447;-63
2023/09/09 09:48:44;;;;;;;7.07;6.47;;;38.60;46.40;;;;;;5057929;28;20463;-63
2023/09/09 09:51:11;;;;;;;7.80;5.97;;;38.50;46.90;;;;;;5058067;28;20505;-63
2023/09/09 09:53:39;;;;;;;6.77;5.97;;;38.60;45.70;;;;;;5057685;28;21025;-63
2023/09/09 09:56:08;;;;;;;8.70;6.10;;;38.80;46.10;;;;;;5038803;28;20436;-63
2023/09/09 09:58:38;;;;;;;7.60;5.80;;;38.90;45.60;;;;;;5038147;28;20510;-63
2023/09/09 10:01:07;;;;;;;6.50;5.60;;;39.30;44.90;;;;;;5037308;28;20456;-63
2023/09/09 10:03:42;;;;;;;6.43;5.83;;;39.60;44.60;;;;;;5036122;28;20464;-64
2023/09/09 10:06:14;;;;;;;7.80;6.13;;;39.70;44.30;;;;;;5036787;28;20436;-63
2023/09/09 10:08:46;;;;;;;6.07;5.57;;;39.70;44.70;;;;;;5037914;28;20549;-63
2023/09/09 10:11:23;;;;;;;6.30;5.70;;;39.80;43.10;;;;;;5037884;28;20431;-65
2023/09/09 10:13:54;;;;;;;6.83;6.13;;;39.80;43.10;;;;;;5037128;28;20567;-63
2023/09/09 10:16:23;;;;;;;5.67;5.07;;;39.80;43.50;;;;;;5035595;28;21000;-64
2023/09/09 10:18:53;;;;;;;6.60;5.57;;;39.20;42.00;;;;;;5035857;28;20471;-65
2023/09/09 10:21:21;;;;;;;9.53;6.80;;;38.90;43.40;;;;;;5035953;28;20534;-62
2023/09/09 10:23:49;;;;;;;9.40;5.63;;;38.80;42.20;;;;;;5036110;28;20468;-67
2023/09/09 10:26:20;;;;;;;5.73;5.23;;;38.70;42.60;;;;;;5035361;28;20440;-63
2023/09/09 10:28:48;;;;;;;4.70;4.30;;;38.40;43.00;;;;;;5035284;28;20499;-62
2023/09/09 10:31:15;;;;;;;6.13;5.33;;;38.10;42.60;;;;;;5035159;28;20921;-63
2023/09/09 10:33:45;;;;;;;6.30;5.70;;;38.00;43.20;;;;;;5038003;28;20467;-62
2023/09/09 10:36:15;;;;;;;6.10;5.23;;;37.80;42.10;;;;;;5058972;28;20458;-65
2023/09/09 10:38:44;;;;;;;5.10;4.70;;;37.00;41.90;;;;;;5058557;28;20470;-63
2023/09/09 10:41:12;;;;;;;6.60;5.60;;;36.40;42.70;;;;;;5058720;28;20976;-63
2023/09/09 10:43:40;;;;;;;6.40;5.40;;;36.40;43.90;;;;;;5058692;28;20479;-62
2023/09/09 10:46:09;;;;;;;8.20;6.17;;;36.30;44.00;;;;;;5058608;28;20459;-65
2023/09/09 10:48:36;;;;;;;6.40;5.77;;;36.20;44.50;;;;;;5057820;28;20474;-64
2023/09/09 10:51:06;;;;;;;5.90;5.30;;;36.20;45.50;;;;;;5058671;28;20915;-63
2023/09/09 10:53:33;;;;;;;5.70;5.10;;;36.00;45.50;;;;;;5058742;28;20490;-65
2023/09/09 10:56:01;;;;;;;4.80;4.40;;;35.50;45.30;;;;;;5057697;28;20467;-63
2023/09/09 10:58:33;;;;;;;5.40;4.87;;;35.20;46.30;;;;;;5058215;28;20863;-64
2023/09/09 11:01:02;;;;;;;5.23;4.77;;;34.80;46.40;;;;;;5045962;28;20452;-62
2023/09/09 11:03:36;;;;;;;6.07;4.87;;;34.80;47.50;;;;;;5038461;28;20440;-63
2023/09/09 11:06:06;;;;;;;5.80;5.20;;;34.70;47.50;;;;;;5046869;28;20455;-64
2023/09/09 11:08:36;;;;;;;6.13;5.03;;;34.60;47.00;;;;;;5058156;28;20443;-64
2023/09/09 11:11:16;;;;;;;5.23;4.50;;;35.40;47.60;;;;;;5057577;28;20451;-64
2023/09/09 11:14:00;;;;;;;7.57;4.80;;;34.30;46.90;;;;;;5057808;28;20467;-64
2023/09/09 11:16:33;;;;;;;7.90;5.23;;;34.10;47.10;;;;;;5057204;28;20493;-60
2023/09/09 11:19:03;;;;;;;6.67;4.67;;;33.80;46.70;;;;;;5057679;28;20999;-62
2023/09/09 11:21:34;;;;;;;9.13;5.40;;;33.40;47.50;;;;;;5058015;28;20519;-61
2023/09/09 11:24:02;;;;;;;5.90;5.20;;;33.40;49.00;;;;;;5057586;28;20466;-62
2023/09/09 11:26:29;;;;;;;5.30;4.70;;;33.20;49.00;;;;;;5057190;28;20564;-63
2023/09/09 11:28:57;;;;;;;5.03;4.40;;;33.20;48.50;;;;;;5057683;28;20467;-63
2023/09/09 11:31:24;;;;;;;5.57;4.80;;;33.10;49.30;;;;;;5057149;28;20512;-65
2023/09/09 11:33:56;;;;;;;5.83;5.20;;;32.90;49.60;;;;;;5057366;28;20450;-63
2023/09/09 11:36:23;;;;;;;6.50;4.90;;;32.90;50.50;;;;;;5057646;28;20424;-63
2023/09/09 11:38:50;;;;;;;8.53;5.13;;;32.80;50.90;;;;;;5049657;28;20773;-64
2023/09/09 11:41:21;;;;;;;4.80;4.40;;;32.70;50.30;;;;;;5037417;28;20520;-64
2023/09/09 11:43:59;;;;;;;7.40;5.43;;;32.40;49.50;;;;;;5036826;28;20451;-62
2023/09/09 11:46:27;;;;;;;7.80;5.80;;;32.10;49.80;;;;;;5036656;28;20900;-61
2023/09/09 11:48:58;;;;;;;8.00;5.20;;;32.10;50.60;;;;;;5039132;28;20440;-63
2023/09/09 11:51:25;;;;;;;5.97;5.10;;;32.10;50.60;;;;;;5057496;28;20464;-63
2023/09/09 11:53:52;;;;;;;6.13;5.03;;;32.10;50.70;;;;;;5057511;28;20447;-66
2023/09/09 11:56:20;;;;;;;7.27;6.07;;;32.10;50.70;;;;;;5057255;28;20841;-63
2023/09/09 11:58:51;;;;;;;6.93;5.47;;;31.90;50.60;;;;;;5038224;28;20515;-63
2023/09/09 12:01:19;;;;;;;6.80;5.67;;;31.90;53.10;;;;;;5037310;28;20456;-63
2023/09/09 12:03:48;;;;;;;7.60;4.90;;;32.00;51.10;;;;;;5037079;28;20459;-64
2023/09/09 12:06:19;;;;;;;8.50;5.00;;;31.90;50.80;;;;;;5037472;28;20456;-64
2023/09/09 12:08:47;;;;;;;6.93;4.90;;;31.90;50.30;;;;;;5038168;28;20870;-63
2023/09/09 12:11:18;;;;;;;7.00;6.30;;;31.80;50.10;;;;;;5056925;28;20522;-67
2023/09/09 12:13:46;;;;;;;9.80;7.50;;;31.80;52.00;;;;;;5057115;28;20475;-65
2023/09/09 12:16:14;;;;;;;5.10;4.60;;;31.90;51.20;;;;;;5057025;28;20448;-63
2023/09/09 12:18:40;;;;;;;17.63;5.27;;;31.80;50.10;;;;;;5056512;28;20947;-63
2023/09/09 12:21:09;;;;;;;6.37;5.07;;;31.80;50.30;;;;;;5056792;28;20536;-64
2023/09/09 12:23:39;;;;;;;6.30;5.10;;;31.80;50.70;;;;;;5056881;28;20453;-65
2023/09/09 12:26:11;;;;;;;5.63;5.13;;;31.80;50.20;;;;;;5056838;28;20557;-65
2023/09/09 12:28:38;;;;;;;6.40;4.87;;;31.80;50.60;;;;;;5057011;28;20475;-63
2023/09/09 12:31:05;;;;;;;8.97;4.90;;;31.70;50.80;;;;;;5040068;28;20460;-63
2023/09/09 12:33:40;;;;;;;6.83;5.73;;;31.80;50.90;;;;;;5036930;28;20527;-63
2023/09/09 12:36:14;;;;;;;5.83;4.93;;;31.80;51.80;;;;;;5042783;28;20501;-65
2023/09/09 12:38:46;;;;;;;5.57;4.77;;;31.90;50.20;;;;;;5055414;28;20466;-63